Time;durP1;ratioP1;P1;durP2;ratioP2;P2;SDS_P1;SDS_P2;PMS_P1;PMS_P2;Temp;Humidity;BMP_temperature;BMP_pressure;BME280_temperature;BME280_humidity;BME280_pressure;Samples;Min_cycle;Max_cycle;Signal;HPM_P1;HPM_P2
2021/08/28 00:01:56;;;;;;;9.38;5.15;;;;;;;;;;6096700;23;20002;-72
2021/08/28 00:04:22;;;;;;;14.65;5.85;;;;;;;;;;6096988;23;20010;-72
2021/08/28 00:06:48;;;;;;;11.18;5.53;;;;;;;;;;6121888;23;20396;-72
2021/08/28 00:09:14;;;;;;;11.00;5.60;;;;;;;;;;6100122;23;20037;-72
2021/08/28 00:11:39;;;;;;;7.65;5.38;;;;;;;;;;6126135;23;20005;-71
2021/08/28 00:14:05;;;;;;;9.77;6.18;;;;;;;;;;6099933;23;20432;-71
2021/08/28 00:16:31;;;;;;;9.00;5.63;;;;;;;;;;6126195;23;20002;-72
2021/08/28 00:18:57;;;;;;;10.07;5.55;;;;;;;;;;6126255;23;20008;-71
2021/08/28 00:21:23;;;;;;;8.90;5.75;;;;;;;;;;6126151;23;20029;-72
2021/08/28 00:23:49;;;;;;;7.88;5.22;;;;;;;;;;6125812;23;20446;-71
2021/08/28 00:26:15;;;;;;;7.10;5.85;;;;;;;;;;6126034;23;20001;-72
2021/08/28 00:28:41;;;;;;;9.95;5.70;;;;;;;;;;6126079;23;20002;-71
2021/08/28 00:31:07;;;;;;;8.05;5.82;;;;;;;;;;6100121;23;20002;-72
2021/08/28 00:33:32;;;;;;;9.63;5.20;;;;;;;;;;6100113;23;20005;-71
2021/08/28 00:35:58;;;;;;;11.20;5.78;;;;;;;;;;6099824;23;20010;-72
2021/08/28 00:38:25;;;;;;;9.25;5.53;;;;;;;;;;6100010;23;20367;-72
2021/08/28 00:40:50;;;;;;;5.97;5.38;;;;;;;;;;6126130;23;19994;-71
2021/08/28 00:43:16;;;;;;;6.80;4.63;;;;;;;;;;6125690;23;20305;-70
2021/08/28 00:45:43;;;;;;;7.50;5.35;;;;;;;;;;6125878;23;20006;-71
2021/08/28 00:48:10;;;;;;;7.28;4.45;;;;;;;;;;6100191;23;20012;-72
2021/08/28 00:50:38;;;;;;;8.27;4.78;;;;;;;;;;6094257;23;20049;-72
2021/08/28 00:53:04;;;;;;;8.73;5.43;;;;;;;;;;6098263;23;20335;-72
2021/08/28 00:55:31;;;;;;;7.32;4.70;;;;;;;;;;6125884;23;19994;-72
2021/08/28 00:57:58;;;;;;;6.53;4.38;;;;;;;;;;6125461;23;20001;-71
2021/08/28 01:00:24;;;;;;;9.00;5.03;;;;;;;;;;6125794;23;20032;-71
2021/08/28 01:02:51;;;;;;;7.65;5.15;;;;;;;;;;6125959;23;20055;-71
2021/08/28 01:05:21;;;;;;;4.85;4.30;;;;;;;;;;6125438;23;20018;-71
2021/08/28 01:08:06;;;;;;;10.35;4.45;;;;;;;;;;6125759;23;20323;-71
2021/08/28 01:10:35;;;;;;;5.57;4.47;;;;;;;;;;6125583;23;20491;-71
2021/08/28 01:13:02;;;;;;;7.13;4.40;;;;;;;;;;6125740;23;20375;-70
2021/08/28 01:15:27;;;;;;;6.45;4.95;;;;;;;;;;6126151;23;20040;-71
2021/08/28 01:17:54;;;;;;;7.10;4.45;;;;;;;;;;6126699;23;20416;-71
2021/08/28 01:20:32;;;;;;;7.60;4.55;;;;;;;;;;6101914;23;20032;-71
2021/08/28 01:23:00;;;;;;;6.28;4.95;;;;;;;;;;6101704;23;20427;-70
2021/08/28 01:25:26;;;;;;;7.38;4.10;;;;;;;;;;6101716;23;20097;-71
2021/08/28 01:27:56;;;;;;;6.32;4.95;;;;;;;;;;6127501;23;20419;-71
2021/08/28 01:30:22;;;;;;;6.90;5.00;;;;;;;;;;6102538;23;20018;-71
2021/08/28 01:32:48;;;;;;;5.00;4.05;;;;;;;;;;6127995;23;20009;-71
2021/08/28 01:35:14;;;;;;;5.78;4.30;;;;;;;;;;6127632;23;20002;-71
2021/08/28 01:37:43;;;;;;;7.28;4.68;;;;;;;;;;6101546;23;19998;-71
2021/08/28 01:40:11;;;;;;;5.53;4.18;;;;;;;;;;6127642;23;20430;-71
2021/08/28 01:42:37;;;;;;;8.95;4.43;;;;;;;;;;6127644;23;19993;-71
2021/08/28 01:45:04;;;;;;;5.90;3.97;;;;;;;;;;6127687;23;20013;-71
2021/08/28 01:47:30;;;;;;;6.40;4.60;;;;;;;;;;6101506;23;20060;-72
2021/08/28 01:49:58;;;;;;;9.90;4.65;;;;;;;;;;6127237;23;20006;-71
2021/08/28 01:52:24;;;;;;;9.48;4.75;;;;;;;;;;6127296;23;19997;-71
2021/08/28 01:54:50;;;;;;;7.55;4.93;;;;;;;;;;6127414;23;19998;-72
2021/08/28 01:57:16;;;;;;;7.28;4.80;;;;;;;;;;6127483;23;20037;-71
2021/08/28 01:59:43;;;;;;;8.60;5.07;;;;;;;;;;6127359;23;20001;-71
2021/08/28 02:02:09;;;;;;;5.75;4.47;;;;;;;;;;6127001;23;20069;-71
2021/08/28 02:04:35;;;;;;;8.10;4.95;;;;;;;;;;6101649;23;20017;-71
2021/08/28 02:07:06;;;;;;;10.25;5.15;;;;;;;;;;6096093;23;20344;-71
2021/08/28 02:09:40;;;;;;;6.28;4.82;;;;;;;;;;6096580;23;20034;-72
2021/08/28 02:12:16;;;;;;;6.03;4.85;;;;;;;;;;6097901;23;20002;-72
2021/08/28 02:14:45;;;;;;;9.40;5.20;;;;;;;;;;6098046;23;20006;-72
2021/08/28 02:17:12;;;;;;;6.45;4.30;;;;;;;;;;6096461;23;20006;-72
2021/08/28 02:19:42;;;;;;;12.18;7.05;;;;;;;;;;6097933;23;19994;-71
2021/08/28 02:22:11;;;;;;;7.28;4.72;;;;;;;;;;6095341;23;20565;-71
2021/08/28 02:24:39;;;;;;;7.13;5.00;;;;;;;;;;6097634;23;20010;-71
2021/08/28 02:27:07;;;;;;;8.93;5.28;;;;;;;;;;6096597;23;20427;-73
2021/08/28 02:29:37;;;;;;;6.43;4.93;;;;;;;;;;6097659;23;20081;-73
2021/08/28 02:32:04;;;;;;;5.90;4.15;;;;;;;;;;6097535;23;19998;-72
2021/08/28 02:34:32;;;;;;;8.23;3.95;;;;;;;;;;6097921;23;20005;-72
2021/08/28 02:36:58;;;;;;;6.40;4.70;;;;;;;;;;6096522;23;20077;-72
2021/08/28 02:39:24;;;;;;;7.60;4.82;;;;;;;;;;6098004;23;20006;-72
2021/08/28 02:41:52;;;;;;;10.43;4.82;;;;;;;;;;6097764;23;19998;-72
2021/08/28 02:44:19;;;;;;;9.23;4.72;;;;;;;;;;6097710;23;20448;-72
2021/08/28 02:46:46;;;;;;;7.63;4.72;;;;;;;;;;6096173;23;19995;-73
2021/08/28 02:49:14;;;;;;;7.35;5.60;;;;;;;;;;6097755;23;19999;-73
2021/08/28 02:51:41;;;;;;;9.75;5.38;;;;;;;;;;6096106;23;20006;-72
2021/08/28 02:54:07;;;;;;;6.65;5.05;;;;;;;;;;6097493;23;20058;-72
2021/08/28 02:56:33;;;;;;;8.15;5.45;;;;;;;;;;6096203;23;20003;-72
2021/08/28 02:58:59;;;;;;;10.57;6.55;;;;;;;;;;6072530;23;20036;-72
2021/08/28 03:01:27;;;;;;;8.02;5.20;;;;;;;;;;6097442;23;20001;-72
2021/08/28 03:03:53;;;;;;;7.80;5.55;;;;;;;;;;6097329;23;20006;-72
2021/08/28 03:06:20;;;;;;;7.63;5.22;;;;;;;;;;6095650;23;20471;-72
2021/08/28 03:08:46;;;;;;;7.20;5.28;;;;;;;;;;6097891;23;20005;-72
2021/08/28 03:11:12;;;;;;;7.30;5.22;;;;;;;;;;6097454;23;20061;-72
2021/08/28 03:13:39;;;;;;;7.82;5.03;;;;;;;;;;6097349;23;20344;-72
2021/08/28 03:16:04;;;;;;;7.32;5.20;;;;;;;;;;6097343;23;20384;-73
2021/08/28 03:18:33;;;;;;;7.20;5.07;;;;;;;;;;6097295;23;19994;-72
2021/08/28 03:20:59;;;;;;;10.88;5.50;;;;;;;;;;6097547;23;20432;-72
2021/08/28 03:23:28;;;;;;;8.43;5.40;;;;;;;;;;6095779;23;20150;-72
2021/08/28 03:25:54;;;;;;;11.70;5.00;;;;;;;;;;6097230;23;20377;-72
2021/08/28 03:28:20;;;;;;;7.35;4.85;;;;;;;;;;6097375;23;19994;-72
2021/08/28 03:30:47;;;;;;;10.27;5.72;;;;;;;;;;6097140;23;19994;-72
2021/08/28 03:33:15;;;;;;;9.27;5.32;;;;;;;;;;6097189;23;20417;-73
2021/08/28 03:35:42;;;;;;;6.75;5.70;;;;;;;;;;6097199;23;20054;-72
2021/08/28 03:38:08;;;;;;;15.93;5.57;;;;;;;;;;6097048;23;19995;-73
2021/08/28 03:40:34;;;;;;;9.02;5.22;;;;;;;;;;6096729;23;20002;-72
2021/08/28 03:43:00;;;;;;;9.50;5.57;;;;;;;;;;6097454;23;20444;-71
2021/08/28 03:45:30;;;;;;;6.22;4.88;;;;;;;;;;6095250;23;20017;-72
2021/08/28 03:47:56;;;;;;;6.82;5.35;;;;;;;;;;6096817;23;20499;-72
2021/08/28 03:50:22;;;;;;;6.43;5.07;;;;;;;;;;6072045;23;20345;-72
2021/08/28 03:52:48;;;;;;;9.45;6.05;;;;;;;;;;6097240;23;20002;-72
2021/08/28 03:55:15;;;;;;;8.88;5.68;;;;;;;;;;6097013;23;20433;-72
2021/08/28 03:57:41;;;;;;;7.15;5.55;;;;;;;;;;6096883;23;20058;-71
2021/08/28 04:00:07;;;;;;;12.15;5.63;;;;;;;;;;6096699;23;19999;-72
2021/08/28 04:02:33;;;;;;;8.18;5.80;;;;;;;;;;6096934;23;19998;-71
2021/08/28 04:04:59;;;;;;;9.48;4.82;;;;;;;;;;6096801;23;20017;-72
2021/08/28 04:07:26;;;;;;;8.57;6.10;;;;;;;;;;6095020;23;20028;-72
2021/08/28 04:09:52;;;;;;;7.97;5.78;;;;;;;;;;6095343;23;20006;-71
2021/08/28 04:12:17;;;;;;;8.20;5.75;;;;;;;;;;6095296;23;20006;-71
2021/08/28 04:14:43;;;;;;;8.70;5.60;;;;;;;;;;6096901;23;19995;-72
2021/08/28 04:17:10;;;;;;;5.65;5.10;;;;;;;;;;6096822;23;19998;-72
2021/08/28 04:19:36;;;;;;;8.52;5.22;;;;;;;;;;6096994;23;20021;-72
2021/08/28 04:22:01;;;;;;;9.82;5.32;;;;;;;;;;6096543;23;20005;-70
2021/08/28 04:24:28;;;;;;;8.75;5.38;;;;;;;;;;6096727;23;20010;-72
2021/08/28 04:26:54;;;;;;;7.70;5.68;;;;;;;;;;6096856;23;20002;-71
2021/08/28 04:29:20;;;;;;;7.30;5.07;;;;;;;;;;6096738;23;20032;-72
2021/08/28 04:31:45;;;;;;;11.20;5.15;;;;;;;;;;6095080;23;20074;-72
2021/08/28 04:34:11;;;;;;;12.80;6.63;;;;;;;;;;6096760;23;19999;-72
2021/08/28 04:36:38;;;;;;;18.38;6.03;;;;;;;;;;6095254;23;20002;-72
2021/08/28 04:39:04;;;;;;;12.40;5.85;;;;;;;;;;6095298;23;20003;-71
2021/08/28 04:41:29;;;;;;;14.13;6.55;;;;;;;;;;6096788;23;20002;-72
2021/08/28 04:43:55;;;;;;;9.38;5.43;;;;;;;;;;6096295;23;20476;-72
2021/08/28 04:46:21;;;;;;;9.38;7.55;;;;;;;;;;6096708;23;19998;-72
2021/08/28 04:48:49;;;;;;;7.15;5.47;;;;;;;;;;6096545;23;19998;-72
2021/08/28 04:51:15;;;;;;;16.80;6.07;;;;;;;;;;6096700;23;20438;-72
2021/08/28 04:53:42;;;;;;;14.35;6.85;;;;;;;;;;6096636;23;19998;-73
2021/08/28 04:56:08;;;;;;;13.18;6.70;;;;;;;;;;6094836;23;20073;-72
2021/08/28 04:58:34;;;;;;;16.33;7.43;;;;;;;;;;6094774;23;20428;-72
2021/08/28 05:01:00;;;;;;;13.40;7.55;;;;;;;;;;6095057;23;20357;-72
2021/08/28 05:03:26;;;;;;;14.15;7.32;;;;;;;;;;6096359;23;20333;-71
2021/08/28 05:05:54;;;;;;;13.90;7.18;;;;;;;;;;6106448;23;20022;-72
2021/08/28 05:08:23;;;;;;;14.15;7.85;;;;;;;;;;6125633;23;20011;-72
2021/08/28 05:10:49;;;;;;;18.08;9.07;;;;;;;;;;6125846;23;20002;-72
2021/08/28 05:13:15;;;;;;;10.80;7.90;;;;;;;;;;6125607;23;19998;-73
2021/08/28 05:15:41;;;;;;;13.75;7.68;;;;;;;;;;6125768;23;19998;-71
2021/08/28 05:18:07;;;;;;;15.13;8.57;;;;;;;;;;6125339;23;20040;-72
2021/08/28 05:20:34;;;;;;;9.70;7.38;;;;;;;;;;6125631;23;20399;-72
2021/08/28 05:22:59;;;;;;;10.23;7.20;;;;;;;;;;6125775;23;19998;-71
2021/08/28 05:25:25;;;;;;;12.05;7.18;;;;;;;;;;6125558;23;20375;-71
2021/08/28 05:27:52;;;;;;;16.38;7.80;;;;;;;;;;6125250;23;20175;-71
2021/08/28 05:30:18;;;;;;;12.52;6.95;;;;;;;;;;6125919;23;20456;-71
2021/08/28 05:32:44;;;;;;;12.85;7.65;;;;;;;;;;6099980;23;20068;-72
2021/08/28 05:35:11;;;;;;;17.60;7.35;;;;;;;;;;6125641;23;20331;-72
2021/08/28 05:37:36;;;;;;;13.68;7.38;;;;;;;;;;6125622;23;19997;-71
2021/08/28 05:40:03;;;;;;;11.73;7.55;;;;;;;;;;6125343;23;20071;-72
2021/08/28 05:42:29;;;;;;;13.02;7.50;;;;;;;;;;6125507;23;19994;-72
2021/08/28 05:44:55;;;;;;;9.82;7.30;;;;;;;;;;6125501;23;20447;-72
2021/08/28 05:47:21;;;;;;;10.90;7.63;;;;;;;;;;6125532;23;19998;-72
2021/08/28 05:49:47;;;;;;;9.25;7.07;;;;;;;;;;6075719;23;20440;-72
2021/08/28 05:52:13;;;;;;;14.77;7.55;;;;;;;;;;6099568;23;20088;-72
2021/08/28 05:54:39;;;;;;;10.15;6.75;;;;;;;;;;6125846;23;20059;-72
2021/08/28 05:57:05;;;;;;;7.95;6.03;;;;;;;;;;6125221;23;19998;-72
2021/08/28 05:59:31;;;;;;;14.25;7.63;;;;;;;;;;6125666;23;20328;-72
2021/08/28 06:01:57;;;;;;;9.25;7.30;;;;;;;;;;6125045;23;20005;-71
2021/08/28 06:04:23;;;;;;;17.63;7.80;;;;;;;;;;6099824;23;20420;-71
2021/08/28 06:06:49;;;;;;;15.00;8.02;;;;;;;;;;6096605;23;20048;-71
2021/08/28 06:09:16;;;;;;;22.70;7.60;;;;;;;;;;6098050;23;20025;-72
2021/08/28 06:11:41;;;;;;;15.63;7.53;;;;;;;;;;6097741;23;20053;-71
2021/08/28 06:14:08;;;;;;;11.63;7.22;;;;;;;;;;6072615;23;20002;-71
2021/08/28 06:16:34;;;;;;;13.88;6.22;;;;;;;;;;6098167;23;20001;-72
2021/08/28 06:19:00;;;;;;;12.23;5.80;;;;;;;;;;6098189;23;19994;-72
2021/08/28 06:21:26;;;;;;;11.07;6.43;;;;;;;;;;6096384;23;20008;-72
2021/08/28 06:23:52;;;;;;;10.52;6.65;;;;;;;;;;6096151;23;20085;-72
2021/08/28 06:26:19;;;;;;;9.82;5.70;;;;;;;;;;6097663;23;20459;-72
2021/08/28 06:28:45;;;;;;;8.77;5.82;;;;;;;;;;6097921;23;20065;-72
2021/08/28 06:31:11;;;;;;;8.18;5.13;;;;;;;;;;6096494;23;20001;-72
2021/08/28 06:33:36;;;;;;;8.95;5.50;;;;;;;;;;6096736;23;20316;-71
2021/08/28 06:36:03;;;;;;;6.82;3.47;;;;;;;;;;6097442;23;19999;-71
2021/08/28 06:38:31;;;;;;;5.25;3.45;;;;;;;;;;6097753;23;20002;-72
2021/08/28 06:40:58;;;;;;;4.82;3.33;;;;;;;;;;6072629;23;20085;-72
2021/08/28 06:43:25;;;;;;;10.02;4.38;;;;;;;;;;6097699;23;19994;-72
2021/08/28 06:45:51;;;;;;;5.35;4.03;;;;;;;;;;6097633;23;20010;-72
2021/08/28 06:48:17;;;;;;;7.57;3.55;;;;;;;;;;6097519;23;20333;-72
2021/08/28 06:50:43;;;;;;;3.88;3.47;;;;;;;;;;6097577;23;20002;-72
2021/08/28 06:53:09;;;;;;;4.47;3.60;;;;;;;;;;6097733;23;20002;-71
2021/08/28 06:55:35;;;;;;;4.22;2.92;;;;;;;;;;6097462;23;20005;-71
2021/08/28 06:58:00;;;;;;;3.38;2.72;;;;;;;;;;6097463;23;20002;-72
2021/08/28 07:00:27;;;;;;;5.95;3.40;;;;;;;;;;6095902;23;20002;-71
2021/08/28 07:02:53;;;;;;;4.65;2.83;;;;;;;;;;6097512;23;20050;-71
2021/08/28 07:05:18;;;;;;;5.50;2.60;;;;;;;;;;6097502;23;20321;-72
2021/08/28 07:07:44;;;;;;;5.30;3.60;;;;;;;;;;6126429;23;20052;-71
2021/08/28 07:10:11;;;;;;;6.43;3.05;;;;;;;;;;6100692;23;19998;-72
2021/08/28 07:12:37;;;;;;;5.93;3.75;;;;;;;;;;6126663;23;20320;-70
2021/08/28 07:15:04;;;;;;;7.95;3.58;;;;;;;;;;6126414;23;19998;-70
2021/08/28 07:17:29;;;;;;;3.20;2.60;;;;;;;;;;6126686;23;19998;-70
2021/08/28 07:19:55;;;;;;;3.72;2.88;;;;;;;;;;6126527;23;20331;-70
2021/08/28 07:22:21;;;;;;;3.40;2.20;;;;;;;;;;6126488;23;20053;-70
2021/08/28 07:24:46;;;;;;;5.05;2.70;;;;;;;;;;6126212;23;20088;-71
2021/08/28 07:27:12;;;;;;;4.80;2.40;;;;;;;;;;6126550;23;20025;-72
2021/08/28 07:29:38;;;;;;;4.43;2.08;;;;;;;;;;6126640;23;20446;-69
2021/08/28 07:32:04;;;;;;;2.50;2.30;;;;;;;;;;6126345;23;20034;-69
2021/08/28 07:34:36;;;;;;;3.40;2.75;;;;;;;;;;6126264;23;20005;-69
2021/08/28 07:37:03;;;;;;;4.93;2.33;;;;;;;;;;6126449;23;19998;-69
2021/08/28 07:39:30;;;;;;;4.63;2.00;;;;;;;;;;6126170;23;20001;-70
2021/08/28 07:41:55;;;;;;;2.35;1.80;;;;;;;;;;6126181;23;20002;-69
2021/08/28 07:44:22;;;;;;;5.50;2.53;;;;;;;;;;6100369;23;20117;-70
2021/08/28 07:46:48;;;;;;;3.95;2.40;;;;;;;;;;6126406;23;20008;-69
2021/08/28 07:49:15;;;;;;;3.58;1.98;;;;;;;;;;6126388;23;20085;-70
2021/08/28 07:51:41;;;;;;;4.03;2.13;;;;;;;;;;6126213;23;20005;-70
2021/08/28 07:54:07;;;;;;;2.63;1.92;;;;;;;;;;6125724;23;20001;-70
2021/08/28 07:56:33;;;;;;;2.05;1.85;;;;;;;;;;6125629;23;19998;-72
2021/08/28 07:58:59;;;;;;;2.92;1.98;;;;;;;;;;6126022;23;20005;-71
2021/08/28 08:01:25;;;;;;;2.30;1.70;;;;;;;;;;6125683;23;20442;-72
2021/08/28 08:03:51;;;;;;;2.95;1.95;;;;;;;;;;6125556;23;20054;-72
2021/08/28 08:06:17;;;;;;;2.15;1.80;;;;;;;;;;6125503;23;20104;-70
2021/08/28 08:08:45;;;;;;;5.60;1.70;;;;;;;;;;6125421;23;20033;-69
2021/08/28 08:11:15;;;;;;;2.78;1.55;;;;;;;;;;6100366;23;20053;-72
2021/08/28 08:13:41;;;;;;;3.50;2.25;;;;;;;;;;6125909;23;20002;-70
2021/08/28 08:16:06;;;;;;;2.10;1.67;;;;;;;;;;6125329;23;20328;-70
2021/08/28 08:18:33;;;;;;;1.70;1.58;;;;;;;;;;6075655;23;19998;-70
2021/08/28 08:20:59;;;;;;;2.25;1.65;;;;;;;;;;6099821;23;20041;-70
2021/08/28 08:23:25;;;;;;;2.53;1.73;;;;;;;;;;6125515;23;19997;-69
2021/08/28 08:25:50;;;;;;;2.72;1.48;;;;;;;;;;6125296;23;20010;-72
2021/08/28 08:28:16;;;;;;;2.17;1.90;;;;;;;;;;6099233;23;20006;-71
2021/08/28 08:30:43;;;;;;;1.73;1.48;;;;;;;;;;6125650;23;20006;-71
2021/08/28 08:33:09;;;;;;;4.07;1.50;;;;;;;;;;6125812;23;20089;-71
2021/08/28 08:35:35;;;;;;;4.93;1.50;;;;;;;;;;6099784;23;20001;-72
2021/08/28 08:38:02;;;;;;;4.50;2.00;;;;;;;;;;6125481;23;20002;-71
2021/08/28 08:40:30;;;;;;;2.70;1.55;;;;;;;;;;6125832;23;20076;-72
2021/08/28 08:42:59;;;;;;;1.63;1.50;;;;;;;;;;6126118;23;19997;-69
2021/08/28 08:45:25;;;;;;;;;;;;;;;;;;6126270;23;20248;-72
2021/08/28 08:47:51;;;;;;;2.92;2.08;;;;;;;;;;6099707;23;19900;-70
2021/08/28 08:50:18;;;;;;;3.25;1.95;;;;;;;;;;6125778;23;20487;-72
2021/08/28 08:52:47;;;;;;;5.10;1.65;;;;;;;;;;6125748;23;20361;-72
2021/08/28 08:55:13;;;;;;;2.35;1.90;;;;;;;;;;6099805;23;20492;-71
2021/08/28 08:57:39;;;;;;;2.63;1.85;;;;;;;;;;6099965;23;20466;-72
2021/08/28 09:00:05;;;;;;;1.60;1.30;;;;;;;;;;6125455;23;19998;-73
2021/08/28 09:02:31;;;;;;;2.08;1.30;;;;;;;;;;6125478;23;20081;-71
2021/08/28 09:04:57;;;;;;;1.63;0.82;;;;;;;;;;6125749;23;20016;-72
2021/08/28 09:07:23;;;;;;;0.93;0.90;;;;;;;;;;6124639;23;20396;-70
2021/08/28 09:09:49;;;;;;;2.05;0.80;;;;;;;;;;6125486;23;20444;-70
2021/08/28 09:12:16;;;;;;;1.45;0.98;;;;;;;;;;6099902;23;20052;-70
2021/08/28 09:14:42;;;;;;;1.08;0.80;;;;;;;;;;6125630;23;20327;-71
2021/08/28 09:17:16;;;;;;;1.25;0.90;;;;;;;;;;6099816;23;20428;-71
2021/08/28 09:19:43;;;;;;;1.63;1.20;;;;;;;;;;6125531;23;20008;-70
2021/08/28 09:22:20;;;;;;;2.28;1.20;;;;;;;;;;6099348;23;20010;-70
2021/08/28 09:24:47;;;;;;;3.85;1.00;;;;;;;;;;6125486;23;20016;-73
2021/08/28 09:27:32;;;;;;;1.13;0.95;;;;;;;;;;6125532;23;20496;-72
2021/08/28 09:29:59;;;;;;;1.15;1.00;;;;;;;;;;6125398;23;20080;-70
2021/08/28 09:32:24;;;;;;;2.40;1.25;;;;;;;;;;6125182;23;20017;-71
2021/08/28 09:34:50;;;;;;;1.73;1.30;;;;;;;;;;6125849;23;20372;-70
2021/08/28 09:37:16;;;;;;;3.63;1.63;;;;;;;;;;6125511;23;20009;-71
2021/08/28 09:39:46;;;;;;;4.53;1.58;;;;;;;;;;6126459;23;20347;-70
2021/08/28 09:42:19;;;;;;;2.55;1.10;;;;;;;;;;6101500;23;20033;-71
2021/08/28 09:44:46;;;;;;;1.58;1.33;;;;;;;;;;6127351;23;20006;-71
2021/08/28 09:47:14;;;;;;;3.38;1.27;;;;;;;;;;6101841;23;20329;-71
2021/08/28 09:49:41;;;;;;;5.60;1.35;;;;;;;;;;6127427;23;20005;-72
2021/08/28 09:52:11;;;;;;;1.20;1.00;;;;;;;;;;6127196;23;20005;-72
2021/08/28 09:54:38;;;;;;;2.13;1.45;;;;;;;;;;6127526;23;20403;-72
2021/08/28 09:57:04;;;;;;;1.30;1.00;;;;;;;;;;6127476;23;20423;-72
2021/08/28 09:59:31;;;;;;;1.55;1.20;;;;;;;;;;6127245;23;20005;-72
2021/08/28 10:01:56;;;;;;;2.63;0.93;;;;;;;;;;6127073;23;20002;-72
2021/08/28 10:04:22;;;;;;;1.30;1.10;;;;;;;;;;6127311;23;20339;-72
2021/08/28 10:06:49;;;;;;;2.42;1.45;;;;;;;;;;6127545;23;20435;-72
2021/08/28 10:09:16;;;;;;;2.13;0.98;;;;;;;;;;6127377;23;20077;-72
2021/08/28 10:11:44;;;;;;;3.90;1.10;;;;;;;;;;6101451;23;20006;-72
2021/08/28 10:14:11;;;;;;;1.60;0.90;;;;;;;;;;6127052;23;19994;-72
2021/08/28 10:16:37;;;;;;;1.20;1.00;;;;;;;;;;6101305;23;20416;-72
2021/08/28 10:19:04;;;;;;;2.42;1.00;;;;;;;;;;6127687;23;20375;-72
2021/08/28 10:21:30;;;;;;;1.92;1.00;;;;;;;;;;6127039;23;19998;-72
2021/08/28 10:23:56;;;;;;;4.80;1.08;;;;;;;;;;6127034;23;20006;-72
2021/08/28 10:26:22;;;;;;;1.15;1.02;;;;;;;;;;6101198;23;20498;-72
2021/08/28 10:28:50;;;;;;;1.88;1.40;;;;;;;;;;6127165;23;20431;-71
2021/08/28 10:31:16;;;;;;;2.45;1.98;;;;;;;;;;6127251;23;20005;-71
2021/08/28 10:33:43;;;;;;;4.78;1.88;;;;;;;;;;6101346;23;20007;-71
2021/08/28 10:36:13;;;;;;;6.78;2.10;;;;;;;;;;6101095;23;20344;-72
2021/08/28 10:38:41;;;;;;;4.57;2.13;;;;;;;;;;6127443;23;20053;-72
2021/08/28 10:41:07;;;;;;;5.30;2.35;;;;;;;;;;6101248;23;20086;-72
2021/08/28 10:43:32;;;;;;;2.17;1.90;;;;;;;;;;6126710;23;20305;-72
2021/08/28 10:45:58;;;;;;;4.60;2.42;;;;;;;;;;6126882;23;20017;-72
2021/08/28 10:48:24;;;;;;;2.85;1.80;;;;;;;;;;6101119;23;20085;-72
2021/08/28 10:50:52;;;;;;;2.10;1.65;;;;;;;;;;6126828;23;20002;-72
2021/08/28 10:53:18;;;;;;;4.88;2.42;;;;;;;;;;6126945;23;20005;-71
2021/08/28 10:55:45;;;;;;;5.55;2.05;;;;;;;;;;6100844;23;19998;-72
2021/08/28 10:58:16;;;;;;;2.05;1.58;;;;;;;;;;6126764;23;19994;-72
2021/08/28 11:00:43;;;;;;;2.15;1.75;;;;;;;;;;6126809;23;20006;-72
2021/08/28 11:03:27;;;;;;;2.47;2.05;;;;;;;;;;6126851;23;20335;-72
2021/08/28 11:06:22;;;;;;;4.80;2.03;;;;;;;;;;6100098;23;20347;-71
2021/08/28 11:08:49;;;;;;;3.83;1.85;;;;;;;;;;6126849;23;20033;-72
2021/08/28 11:11:30;;;;;;;5.90;1.85;;;;;;;;;;6126709;23;20002;-72
2021/08/28 11:13:58;;;;;;;2.63;1.70;;;;;;;;;;6126559;23;20052;-71
2021/08/28 11:16:42;;;;;;;3.35;2.10;;;;;;;;;;6126904;23;20005;-72
2021/08/28 11:19:14;;;;;;;3.50;2.13;;;;;;;;;;6126675;23;20001;-72
2021/08/28 11:21:43;;;;;;;4.38;2.03;;;;;;;;;;6126682;23;19994;-72
2021/08/28 11:24:12;;;;;;;2.42;1.63;;;;;;;;;;6126745;23;20006;-72
2021/08/28 11:26:38;;;;;;;6.50;2.15;;;;;;;;;;6101029;23;20006;-72
2021/08/28 11:29:23;;;;;;;4.45;1.90;;;;;;;;;;6126730;23;20002;-72
2021/08/28 11:32:10;;;;;;;1.98;1.75;;;;;;;;;;6126425;23;20022;-72
2021/08/28 11:34:49;;;;;;;1.95;1.70;;;;;;;;;;6100526;23;20037;-72
2021/08/28 11:37:31;;;;;;;1.83;1.53;;;;;;;;;;6126517;23;20343;-72
2021/08/28 11:39:59;;;;;;;3.45;2.00;;;;;;;;;;6126386;23;19998;-72
2021/08/28 11:42:29;;;;;;;2.45;1.80;;;;;;;;;;6126506;23;20021;-72
2021/08/28 11:44:56;;;;;;;3.38;1.65;;;;;;;;;;6126411;23;20507;-72
2021/08/28 11:47:23;;;;;;;1.58;1.20;;;;;;;;;;6126504;23;20069;-73
2021/08/28 11:49:50;;;;;;;3.40;1.45;;;;;;;;;;6100215;23;20089;-73
2021/08/28 11:52:17;;;;;;;3.40;1.67;;;;;;;;;;6126330;23;20001;-72
2021/08/28 11:54:44;;;;;;;1.65;1.30;;;;;;;;;;6100720;23;20002;-72
2021/08/28 11:57:11;;;;;;;1.60;1.50;;;;;;;;;;6126387;23;19997;-70
2021/08/28 11:59:38;;;;;;;2.00;1.67;;;;;;;;;;6126136;23;20022;-70
2021/08/28 12:02:05;;;;;;;6.72;1.80;;;;;;;;;;6125708;23;20666;-70
2021/08/28 12:04:35;;;;;;;2.65;1.80;;;;;;;;;;6126087;23;20431;-70
2021/08/28 12:07:01;;;;;;;3.15;1.50;;;;;;;;;;6125596;23;20025;-72
2021/08/28 12:09:27;;;;;;;2.00;1.48;;;;;;;;;;6126177;23;20463;-73
2021/08/28 12:11:53;;;;;;;2.90;1.83;;;;;;;;;;6126091;23;19994;-71
2021/08/28 12:14:20;;;;;;;2.60;1.80;;;;;;;;;;6126188;23;20005;-73
2021/08/28 12:16:47;;;;;;;2.67;1.60;;;;;;;;;;6126150;23;20025;-73
2021/08/28 12:19:17;;;;;;;4.22;2.20;;;;;;;;;;6100405;23;20073;-73
2021/08/28 12:21:43;;;;;;;5.75;2.30;;;;;;;;;;6125737;23;20331;-73
2021/08/28 12:24:14;;;;;;;5.07;2.70;;;;;;;;;;6075925;23;20022;-73
2021/08/28 12:26:41;;;;;;;2.92;2.40;;;;;;;;;;6100234;23;20327;-72
2021/08/28 12:29:07;;;;;;;3.20;2.20;;;;;;;;;;6126120;23;20371;-72
2021/08/28 12:31:34;;;;;;;3.97;2.55;;;;;;;;;;6126137;23;19998;-72
2021/08/28 12:34:18;;;;;;;3.13;2.15;;;;;;;;;;6125894;23;19998;-72
2021/08/28 12:36:45;;;;;;;4.20;2.28;;;;;;;;;;6100457;23;20002;-72
2021/08/28 12:39:11;;;;;;;2.30;2.10;;;;;;;;;;6100026;23;20375;-72
2021/08/28 12:41:37;;;;;;;2.08;1.80;;;;;;;;;;6125897;23;19994;-72
2021/08/28 12:44:03;;;;;;;3.67;2.33;;;;;;;;;;6125589;23;20009;-72
2021/08/28 12:46:29;;;;;;;2.67;1.77;;;;;;;;;;6125493;23;20006;-73
2021/08/28 12:49:07;;;;;;;3.25;1.90;;;;;;;;;;6125573;23;20467;-72
2021/08/28 12:51:34;;;;;;;3.38;2.00;;;;;;;;;;6125323;23;20029;-73
2021/08/28 12:53:59;;;;;;;3.22;2.20;;;;;;;;;;6099799;23;20293;-73
2021/08/28 12:56:24;;;;;;;3.60;2.22;;;;;;;;;;6099763;23;20008;-73
2021/08/28 12:58:50;;;;;;;2.47;2.28;;;;;;;;;;6125984;23;19998;-73
2021/08/28 13:01:16;;;;;;;7.15;1.98;;;;;;;;;;6099600;23;20005;-72
2021/08/28 13:03:49;;;;;;;4.13;2.63;;;;;;;;;;6125639;23;20012;-72
2021/08/28 13:06:20;;;;;;;5.22;1.92;;;;;;;;;;6125240;23;20018;-72
2021/08/28 13:08:48;;;;;;;4.80;2.35;;;;;;;;;;6125771;23;20026;-73
2021/08/28 13:11:19;;;;;;;4.32;2.38;;;;;;;;;;6125925;23;20026;-73
2021/08/28 13:13:52;;;;;;;4.20;2.70;;;;;;;;;;6125358;23;19998;-72
2021/08/28 13:16:18;;;;;;;5.60;3.00;;;;;;;;;;6099583;23;20457;-72
2021/08/28 13:18:43;;;;;;;3.38;2.20;;;;;;;;;;6125824;23;19998;-73
2021/08/28 13:21:09;;;;;;;5.53;2.70;;;;;;;;;;6100108;23;20002;-72
2021/08/28 13:23:35;;;;;;;5.15;2.50;;;;;;;;;;6125553;23;20002;-73
2021/08/28 13:26:02;;;;;;;4.25;2.70;;;;;;;;;;6099293;23;20510;-73
2021/08/28 13:28:30;;;;;;;3.67;2.40;;;;;;;;;;6099373;23;20006;-72
2021/08/28 13:30:58;;;;;;;4.22;3.22;;;;;;;;;;6100401;23;20002;-72
2021/08/28 13:33:28;;;;;;;6.60;2.92;;;;;;;;;;6125680;23;20005;-72
2021/08/28 13:35:58;;;;;;;6.03;3.50;;;;;;;;;;6099488;23;20056;-73
2021/08/28 13:38:24;;;;;;;6.95;3.15;;;;;;;;;;6099908;23;20025;-72
2021/08/28 13:40:51;;;;;;;5.90;3.00;;;;;;;;;;6125737;23;20084;-72
2021/08/28 13:43:19;;;;;;;4.20;3.00;;;;;;;;;;6125273;23;20002;-72
2021/08/28 13:45:44;;;;;;;10.32;3.80;;;;;;;;;;6125347;23;20012;-73
2021/08/28 13:48:10;;;;;;;7.53;3.28;;;;;;;;;;6125652;23;20065;-73
2021/08/28 13:50:36;;;;;;;5.22;3.58;;;;;;;;;;6125407;23;20008;-72
2021/08/28 13:53:02;;;;;;;5.80;2.88;;;;;;;;;;6125779;23;20395;-73
2021/08/28 13:55:27;;;;;;;10.63;3.30;;;;;;;;;;6125530;23;19998;-73
2021/08/28 13:57:54;;;;;;;4.85;3.53;;;;;;;;;;6125134;23;20005;-72
2021/08/28 14:00:20;;;;;;;4.95;2.75;;;;;;;;;;6125441;23;20013;-73
2021/08/28 14:02:46;;;;;;;5.55;2.88;;;;;;;;;;6099550;23;20008;-73
2021/08/28 14:05:14;;;;;;;7.03;3.35;;;;;;;;;;6125445;23;20034;-72
2021/08/28 14:07:39;;;;;;;4.18;2.80;;;;;;;;;;6124968;23;20097;-72
2021/08/28 14:10:06;;;;;;;4.90;2.67;;;;;;;;;;6125133;23;20447;-72
2021/08/28 14:12:32;;;;;;;4.10;2.90;;;;;;;;;;6125149;23;20002;-72
2021/08/28 14:14:58;;;;;;;4.88;2.70;;;;;;;;;;6099737;23;20048;-72
2021/08/28 14:17:24;;;;;;;5.07;2.83;;;;;;;;;;6125255;23;20053;-73
2021/08/28 14:19:51;;;;;;;3.53;2.50;;;;;;;;;;6075233;23;20105;-72
2021/08/28 14:22:17;;;;;;;3.88;2.50;;;;;;;;;;6125434;23;20008;-72
2021/08/28 14:24:43;;;;;;;6.40;2.30;;;;;;;;;;6125302;23;20033;-72
2021/08/28 14:27:10;;;;;;;2.65;2.22;;;;;;;;;;6101141;23;20450;-73
2021/08/28 14:29:36;;;;;;;2.22;1.95;;;;;;;;;;6126823;23;20101;-73
2021/08/28 14:32:03;;;;;;;4.22;2.10;;;;;;;;;;6126912;23;20026;-72
2021/08/28 14:34:30;;;;;;;5.03;2.20;;;;;;;;;;6126882;23;19998;-72
2021/08/28 14:36:56;;;;;;;6.22;2.10;;;;;;;;;;6101430;23;20010;-72
2021/08/28 14:39:23;;;;;;;6.57;2.42;;;;;;;;;;6126689;23;20029;-72
2021/08/28 14:41:49;;;;;;;5.65;2.20;;;;;;;;;;6126607;23;20097;-72